createdAt,value
2024-02-05T00:04:02.011Z,94522.28
2024-02-05T00:09:04.878Z,94528.53
2024-02-05T00:14:06.938Z,94525.56
2024-02-05T00:19:08.563Z,94514.63
2024-02-05T00:24:13.891Z,94517.50
2024-02-05T00:29:15.587Z,94524.28
2024-02-05T00:34:17.306Z,94527.13
2024-02-05T00:39:20.246Z,94526.09
2024-02-05T00:44:21.870Z,94524.63
2024-02-05T00:49:23.531Z,94504.66
2024-02-05T00:54:26.388Z,94521.19
2024-02-05T00:59:28.374Z,94521.75
2024-02-05T01:04:30.016Z,94522.03
2024-02-05T01:09:32.898Z,94531.84
2024-02-05T01:14:34.682Z,94539.72
2024-02-05T01:19:36.371Z,94535.13
2024-02-05T01:24:39.269Z,94538.66
2024-02-05T01:29:42.335Z,94542.13
2024-02-05T01:34:43.992Z,94549.06
2024-02-05T01:39:46.946Z,94548.84
2024-02-05T01:44:48.568Z,94542.63
2024-02-05T01:49:50.548Z,94532.41
2024-02-05T01:54:53.538Z,94524.31
2024-02-05T01:59:55.402Z,94532.16
2024-02-05T02:04:59.280Z,94532.16
2024-02-05T02:10:02.359Z,94541.91
2024-02-05T02:15:04.721Z,94537.84
2024-02-05T02:20:08.369Z,94530.06
2024-02-05T02:25:11.498Z,94535.44
2024-02-05T02:30:15.157Z,94539.69
2024-02-05T02:35:25.620Z,94536.47
2024-02-05T02:40:30.784Z,94535.28
2024-02-05T02:45:33.773Z,94548.53
2024-02-05T02:50:35.309Z,94552.88
2024-02-05T02:55:38.192Z,94563.97
2024-02-05T03:00:40.014Z,94574.84
2024-02-05T03:05:41.723Z,94579.97
2024-02-05T03:10:45.076Z,94574.66
2024-02-05T03:15:46.788Z,94582.72
2024-02-05T03:20:48.309Z,94576.34
2024-02-05T03:25:51.325Z,94585.81
2024-02-05T03:30:52.970Z,94584.16
2024-02-05T03:35:54.589Z,94584.50
2024-02-05T03:40:57.539Z,94582.72
2024-02-05T03:45:59.115Z,94592.88
2024-02-05T03:51:00.740Z,94591.41
2024-02-05T03:56:03.970Z,94590.59
2024-02-05T04:01:06.180Z,94600.41
2024-02-05T04:06:08.003Z,94602.81
2024-02-05T04:11:11.078Z,94605.38
2024-02-05T04:16:15.622Z,94614.72
2024-02-05T04:21:17.237Z,94615.84
2024-02-05T04:26:20.284Z,94616.63
2024-02-05T04:31:21.829Z,94619.38
2024-02-05T04:36:23.452Z,94616.63
2024-02-05T04:41:26.369Z,94624.19
2024-02-05T04:46:27.981Z,94619.38
2024-02-05T04:51:29.611Z,94627.91
2024-02-05T04:56:32.532Z,94623.31
2024-02-05T05:01:34.379Z,94621.78
2024-02-05T05:06:36.076Z,94624.13
2024-02-05T05:11:39.158Z,94626.19
2024-02-05T05:16:40.848Z,94624.00
2024-02-05T05:21:42.439Z,94631.34
2024-02-05T05:26:45.415Z,94635.00
2024-02-05T05:31:47.049Z,94632.28
2024-02-05T05:36:48.576Z,94639.72
2024-02-05T05:41:51.460Z,94636.47
2024-02-05T05:46:53.068Z,94636.34
2024-02-05T05:51:54.648Z,94631.75
2024-02-05T05:56:57.762Z,94632.28
2024-02-05T06:01:59.442Z,94615.09
2024-02-05T06:07:01.142Z,94626.75
2024-02-05T06:12:04.677Z,94627.81
2024-02-05T06:17:06.290Z,94626.47
2024-02-05T06:22:07.906Z,94627.75
2024-02-05T06:27:10.818Z,94614.34
2024-02-05T06:32:12.378Z,94617.72
2024-02-05T06:37:14.091Z,94624.50
2024-02-05T06:42:16.993Z,94631.69
2024-02-05T06:47:18.509Z,94632.44
2024-02-05T06:52:20.231Z,94625.00
2024-02-05T06:57:23.235Z,94640.78
2024-02-05T07:02:24.773Z,94649.91
2024-02-05T07:07:28.813Z,94651.63
2024-02-05T07:12:32.830Z,94658.69
2024-02-05T07:17:35.913Z,94666.31
2024-02-05T07:22:37.614Z,94660.63
2024-02-05T07:27:40.551Z,94669.63
2024-02-05T07:32:42.159Z,94665.28
2024-02-05T07:37:43.883Z,94670.56
2024-02-05T07:42:46.851Z,94667.94
2024-02-05T07:47:48.455Z,94666.75
2024-02-05T07:52:50.674Z,94665.00
2024-02-05T07:57:53.521Z,94679.63
2024-02-05T08:02:55.146Z,94675.44
2024-02-05T08:07:56.712Z,94669.09
2024-02-05T08:12:59.722Z,94670.00
2024-02-05T08:18:01.533Z,94669.09
2024-02-05T08:23:03.174Z,94667.47
2024-02-05T08:28:06.814Z,94672.34
2024-02-05T08:33:09.065Z,94671.44
2024-02-05T08:38:10.666Z,94662.69
2024-02-05T08:43:13.551Z,94647.63
2024-02-05T08:48:15.160Z,94648.06
2024-02-05T08:53:16.774Z,94644.28
2024-02-05T08:58:19.955Z,94651.56
2024-02-05T09:03:21.479Z,94652.47
2024-02-05T09:08:23.009Z,94638.44
2024-02-05T09:13:25.956Z,94639.75
2024-02-05T09:18:27.674Z,94630.09
2024-02-05T09:23:29.269Z,94626.19
2024-02-05T09:28:32.260Z,94629.06
2024-02-05T09:33:33.835Z,94631.09
2024-02-05T09:38:35.412Z,94646.66
2024-02-05T09:43:39.916Z,94658.78
2024-02-05T09:48:43.788Z,94660.81
2024-02-05T09:53:47.572Z,94656.72
2024-02-05T09:58:50.462Z,94658.38
2024-02-05T10:03:53.696Z,94648.94
2024-02-05T10:09:00.670Z,94653.16
2024-02-05T10:14:03.573Z,94656.72
2024-02-05T10:19:05.561Z,94651.44
2024-02-05T10:24:12.805Z,94645.25
2024-02-05T10:29:16.517Z,94647.63
2024-02-05T10:34:20.295Z,94632.59
2024-02-05T10:39:23.155Z,94631.66
2024-02-05T10:44:34.528Z,94629.78
2024-02-05T10:49:42.638Z,94617.47
2024-02-05T10:54:45.771Z,94616.53
2024-02-05T10:59:48.960Z,94625.97
2024-02-05T11:04:52.802Z,94614.28
2024-02-05T11:09:56.010Z,94607.81
2024-02-05T11:15:04.718Z,94601.72
2024-02-05T11:20:11.612Z,94591.44
2024-02-05T11:25:14.686Z,94588.84
2024-02-05T11:30:20.172Z,94574.66
2024-02-05T11:35:28.384Z,94561.06
2024-02-05T11:40:32.776Z,94555.28
2024-02-05T11:45:37.169Z,94559.47
2024-02-05T11:50:38.875Z,94551.34
2024-02-05T11:55:40.510Z,94538.09
2024-02-05T12:00:43.602Z,94531.44
2024-02-05T12:05:45.478Z,94523.19
2024-02-05T12:10:47.512Z,94514.34
2024-02-05T12:15:50.429Z,94514.97
2024-02-05T12:20:58.057Z,94504.56
2024-02-05T12:26:00.427Z,94501.31
2024-02-05T12:31:03.362Z,94496.38
2024-02-05T12:36:08.039Z,94487.88
2024-02-05T12:41:10.387Z,94476.59
2024-02-05T12:46:14.399Z,94472.94
2024-02-05T12:51:16.464Z,94469.09
2024-02-05T12:56:18.304Z,94453.50
2024-02-05T13:01:21.393Z,94447.00
2024-02-05T13:06:23.236Z,94440.72
2024-02-05T13:11:25.319Z,94443.59
2024-02-05T13:16:28.939Z,94430.91
2024-02-05T13:21:30.589Z,94416.16
2024-02-05T13:26:32.195Z,94407.66
2024-02-05T13:31:35.204Z,94401.75
2024-02-05T13:36:37.178Z,94396.66
2024-02-05T13:41:38.977Z,94383.13
2024-02-05T13:46:42.030Z,94389.22
2024-02-05T13:51:43.697Z,94379.47
2024-02-05T13:56:45.317Z,94384.16
2024-02-05T14:01:48.146Z,94382.19
2024-02-05T14:06:49.873Z,94375.66
2024-02-05T14:11:51.476Z,94377.50
2024-02-05T14:16:54.337Z,94373.38
2024-02-05T14:21:55.994Z,94368.72
2024-02-05T14:26:57.709Z,94363.72
2024-02-05T14:32:00.532Z,94365.50
2024-02-05T14:37:02.162Z,94358.34
2024-02-05T14:42:04.079Z,94363.53
2024-02-05T14:47:07.742Z,94367.94
2024-02-05T14:52:09.245Z,94363.53
2024-02-05T14:57:10.816Z,94362.72
2024-02-05T15:02:14.005Z,94359.09
2024-02-05T15:07:15.906Z,94350.44
2024-02-05T15:12:17.524Z,94352.56
2024-02-05T15:17:20.470Z,94353.75
2024-02-05T15:22:23.410Z,94346.09
2024-02-05T15:27:24.953Z,94347.56
2024-02-05T15:32:27.916Z,94339.50
2024-02-05T15:37:29.547Z,94336.41
2024-02-05T15:42:31.513Z,94337.75
2024-02-05T15:47:35.278Z,94333.25
2024-02-05T15:52:36.990Z,94333.19
2024-02-05T15:57:39.249Z,94317.91
2024-02-05T16:02:42.103Z,94323.63
2024-02-05T16:07:43.966Z,94320.50
2024-02-05T16:12:45.537Z,94314.16
2024-02-05T16:17:48.535Z,94311.59
2024-02-05T16:22:50.201Z,94311.41
2024-02-05T16:27:52.033Z,94322.47
2024-02-05T16:32:55.085Z,94313.44
2024-02-05T16:37:56.614Z,94308.19
2024-02-05T16:42:58.181Z,94308.69
2024-02-05T16:48:01.208Z,94303.31
2024-02-05T16:53:02.927Z,94303.19
2024-02-05T16:58:04.714Z,94305.84
2024-02-05T17:03:07.614Z,94294.75
2024-02-05T17:08:09.923Z,94299.03
2024-02-05T17:13:11.524Z,94293.63
2024-02-05T17:18:15.407Z,94290.56
2024-02-05T17:23:17.029Z,94293.03
2024-02-05T17:28:18.537Z,94279.53
2024-02-05T17:33:21.679Z,94287.31
2024-02-05T17:38:23.389Z,94284.47
2024-02-05T17:43:24.999Z,94287.88
2024-02-05T17:48:28.120Z,94287.75
2024-02-05T17:53:29.816Z,94285.22
2024-02-05T17:58:31.514Z,94278.81
2024-02-05T18:03:34.652Z,94282.88
2024-02-05T18:08:36.307Z,94284.06
2024-02-05T18:13:38.031Z,94282.13
2024-02-05T18:18:41.021Z,94283.91
2024-02-05T18:23:42.614Z,94271.53
2024-02-05T18:28:44.290Z,94279.75
2024-02-05T18:33:47.259Z,94279.00
2024-02-05T18:38:48.890Z,94273.50
2024-02-05T18:43:50.419Z,94263.69
2024-02-05T18:48:53.877Z,94266.78
2024-02-05T18:53:55.483Z,94266.13
2024-02-05T18:58:57.340Z,94259.81
2024-02-05T19:04:00.535Z,94252.91
2024-02-05T19:09:02.172Z,94251.16
2024-02-05T19:14:04.580Z,94248.06
2024-02-05T19:19:07.735Z,94246.47
2024-02-05T19:24:09.369Z,94244.69
2024-02-05T19:29:10.984Z,94238.41
2024-02-05T19:34:14.032Z,94244.84
2024-02-05T19:39:15.962Z,94242.28
2024-02-05T19:44:17.567Z,94239.41
2024-02-05T19:49:20.644Z,94226.97
2024-02-05T19:54:22.287Z,94231.97
2024-02-05T19:59:23.876Z,94227.97
2024-02-05T20:04:27.013Z,94215.53
2024-02-05T20:09:28.740Z,94206.84
2024-02-05T20:14:30.389Z,94212.63
2024-02-05T20:19:33.359Z,94206.03
2024-02-05T20:24:35.100Z,94199.59
2024-02-05T20:29:36.714Z,94196.03
2024-02-05T20:34:39.939Z,94194.25
2024-02-05T20:39:41.666Z,94190.06
2024-02-05T20:44:43.329Z,94198.47
2024-02-05T20:49:46.491Z,94186.06
2024-02-05T20:54:48.268Z,94180.75
2024-02-05T20:59:49.784Z,94169.28
2024-02-05T21:04:52.884Z,94169.63
2024-02-05T21:09:54.955Z,94170.59
2024-02-05T21:14:56.580Z,94167.53
2024-02-05T21:19:59.603Z,94165.91
2024-02-05T21:25:01.217Z,94161.53
2024-02-05T21:30:03.009Z,94158.66
2024-02-05T21:35:06.759Z,94155.09
2024-02-05T21:40:09.273Z,94159.13
2024-02-05T21:45:11.100Z,94144.31
2024-02-05T21:50:14.217Z,94148.97
2024-02-05T21:55:16.124Z,94143.31
2024-02-05T22:00:18.047Z,94138.81
2024-02-05T22:05:21.030Z,94148.47
2024-02-05T22:10:23.649Z,94139.44
2024-02-05T22:15:25.305Z,94132.38
2024-02-05T22:20:28.252Z,94139.44
2024-02-05T22:25:29.803Z,94141.41
2024-02-05T22:30:31.424Z,94136.72
2024-02-05T22:35:35.515Z,94144.63
2024-02-05T22:40:37.233Z,94133.69
2024-02-05T22:45:38.993Z,94133.69
2024-02-05T22:50:42.025Z,94135.94
2024-02-05T22:55:43.687Z,94141.41
2024-02-05T23:00:45.408Z,94153.63
2024-02-05T23:05:48.448Z,94147.34
2024-02-05T23:10:50.077Z,94151.69
2024-02-05T23:15:52.894Z,94144.28
2024-02-05T23:20:56.134Z,94143.63
2024-02-05T23:25:57.779Z,94138.81
2024-02-05T23:30:59.497Z,94139.94
2024-02-05T23:36:02.480Z,94126.72
2024-02-05T23:41:04.234Z,94126.25
2024-02-05T23:46:06.647Z,94125.28
2024-02-05T23:51:09.703Z,94120.13
2024-02-05T23:56:11.313Z,94119.47
